Time;durP1;ratioP1;P1;durP2;ratioP2;P2;SDS_P1;SDS_P2;PMS_P1;PMS_P2;Temp;Humidity;BMP_temperature;BMP_pressure;BME280_temperature;BME280_humidity;BME280_pressure;Samples;Min_cycle;Max_cycle;Signal;HPM_P1;HPM_P2
2022/03/11 00:01:36;;;;;;;33.87;31.00;;;;;;;;;;4996831;28;20195;-85
2022/03/11 00:04:05;;;;;;;35.70;32.75;;;;;;;;;;4996910;28;20489;-84
2022/03/11 00:06:32;;;;;;;34.23;31.30;;;;;;;;;;4997047;28;20198;-85
2022/03/11 00:09:00;;;;;;;35.17;32.08;;;;;;;;;;4996988;28;20421;-85
2022/03/11 00:11:27;;;;;;;34.83;31.53;;;;;;;;;;4996417;28;20707;-85
2022/03/11 00:13:54;;;;;;;32.22;29.60;;;;;;;;;;4996679;28;20801;-85
2022/03/11 00:16:22;;;;;;;34.35;31.50;;;;;;;;;;4996646;28;20264;-84
2022/03/11 00:18:50;;;;;;;34.50;31.60;;;;;;;;;;4996293;28;20566;-85
2022/03/11 00:21:18;;;;;;;35.00;32.10;;;;;;;;;;4979001;28;20425;-84
2022/03/11 00:23:46;;;;;;;35.30;32.33;;;;;;;;;;4995735;28;20222;-86
2022/03/11 00:26:13;;;;;;;33.83;31.02;;;;;;;;;;4996317;28;20667;-85
2022/03/11 00:28:40;;;;;;;36.03;33.03;;;;;;;;;;4996399;28;20194;-84
2022/03/11 00:31:08;;;;;;;34.07;31.20;;;;;;;;;;4995930;28;20187;-84
2022/03/11 00:33:36;;;;;;;36.42;33.30;;;;;;;;;;4996193;28;20430;-85
2022/03/11 00:36:03;;;;;;;36.43;33.30;;;;;;;;;;4996298;28;20265;-85
2022/03/11 00:38:32;;;;;;;34.57;31.60;;;;;;;;;;4996266;28;20442;-84
2022/03/11 00:40:59;;;;;;;35.57;32.67;;;;;;;;;;4995879;28;20442;-85
2022/03/11 00:43:27;;;;;;;37.77;34.57;;;;;;;;;;4995900;28;20511;-84
2022/03/11 00:45:55;;;;;;;35.15;32.05;;;;;;;;;;4995988;28;20409;-84
2022/03/11 00:48:22;;;;;;;33.10;30.33;;;;;;;;;;4995925;28;20195;-85
2022/03/11 00:50:50;;;;;;;34.05;31.23;;;;;;;;;;4996057;28;20245;-85
2022/03/11 00:53:17;;;;;;;34.97;31.85;;;;;;;;;;4995707;28;20250;-85
2022/03/11 00:55:46;;;;;;;33.97;31.00;;;;;;;;;;4995838;28;20195;-84
2022/03/11 00:58:13;;;;;;;35.95;32.58;;;;;;;;;;4995758;28;20496;-85
2022/03/11 01:00:41;;;;;;;35.40;32.37;;;;;;;;;;4995724;28;20201;-85
2022/03/11 01:03:08;;;;;;;36.42;33.33;;;;;;;;;;4995500;28;20492;-84
2022/03/11 01:05:35;;;;;;;34.85;32.00;;;;;;;;;;4995848;28;20194;-85
2022/03/11 01:08:03;;;;;;;35.67;32.22;;;;;;;;;;4995595;28;20617;-84
2022/03/11 01:10:30;;;;;;;34.85;31.95;;;;;;;;;;4996272;28;20234;-85
2022/03/11 01:12:59;;;;;;;37.20;33.92;;;;;;;;;;4997103;28;20207;-85
2022/03/11 01:15:26;;;;;;;34.85;31.75;;;;;;;;;;4995530;28;20233;-84
2022/03/11 01:17:54;;;;;;;35.85;32.53;;;;;;;;;;4995230;28;20234;-85
2022/03/11 01:20:21;;;;;;;34.67;31.83;;;;;;;;;;4995492;28;20195;-84
2022/03/11 01:22:48;;;;;;;33.90;31.23;;;;;;;;;;4995389;28;20218;-85
2022/03/11 01:25:15;;;;;;;35.80;32.63;;;;;;;;;;4995406;28;20194;-85
2022/03/11 01:27:43;;;;;;;34.90;31.90;;;;;;;;;;4995368;28;20241;-85
2022/03/11 01:30:13;;;;;;;35.00;32.15;;;;;;;;;;4995382;28;20195;-85
2022/03/11 01:32:41;;;;;;;34.60;31.55;;;;;;;;;;4995263;28;20550;-85
2022/03/11 01:35:09;;;;;;;35.15;32.30;;;;;;;;;;4994736;28;20202;-85
2022/03/11 01:37:36;;;;;;;35.60;32.33;;;;;;;;;;4977266;28;20207;-84
2022/03/11 01:40:04;;;;;;;33.88;31.17;;;;;;;;;;4994962;28;20224;-85
2022/03/11 01:42:34;;;;;;;34.90;31.88;;;;;;;;;;4995044;28;20198;-84
2022/03/11 01:45:01;;;;;;;36.08;33.13;;;;;;;;;;4994876;28;20701;-85
2022/03/11 01:47:30;;;;;;;36.72;33.72;;;;;;;;;;4994978;28;20749;-85
2022/03/11 01:49:57;;;;;;;35.17;32.25;;;;;;;;;;4994824;28;20195;-85
2022/03/11 01:52:25;;;;;;;35.92;32.83;;;;;;;;;;4994685;28;20223;-85
2022/03/11 01:54:52;;;;;;;34.15;31.10;;;;;;;;;;4994497;28;20206;-85
2022/03/11 01:57:19;;;;;;;36.97;33.35;;;;;;;;;;4994475;28;20195;-85
2022/03/11 01:59:47;;;;;;;34.67;31.75;;;;;;;;;;4994608;28;20234;-85
2022/03/11 02:02:14;;;;;;;36.85;33.60;;;;;;;;;;4994865;28;20241;-85
2022/03/11 02:04:43;;;;;;;36.10;32.70;;;;;;;;;;4994390;28;20238;-85
2022/03/11 02:07:11;;;;;;;37.10;33.70;;;;;;;;;;4994726;28;20620;-85
2022/03/11 02:09:39;;;;;;;35.88;32.88;;;;;;;;;;4994340;28;20233;-85
2022/03/11 02:12:06;;;;;;;37.25;33.80;;;;;;;;;;4994388;28;20206;-85
2022/03/11 02:14:34;;;;;;;35.88;32.92;;;;;;;;;;4994355;28;20707;-85
2022/03/11 02:17:01;;;;;;;36.55;33.30;;;;;;;;;;4994357;28;20301;-85
2022/03/11 02:19:28;;;;;;;36.00;32.90;;;;;;;;;;4994118;28;20285;-85
2022/03/11 02:21:58;;;;;;;36.95;33.60;;;;;;;;;;4976988;28;20202;-85
2022/03/11 02:24:28;;;;;;;37.08;33.65;;;;;;;;;;4994355;28;20664;-85
2022/03/11 02:26:56;;;;;;;35.92;32.80;;;;;;;;;;4994327;28;20564;-85
2022/03/11 02:29:23;;;;;;;36.45;33.15;;;;;;;;;;4994226;28;20664;-84
2022/03/11 02:31:50;;;;;;;36.05;32.83;;;;;;;;;;4994068;28;20661;-84
2022/03/11 02:34:18;;;;;;;33.90;30.33;;;;;;;;;;4994045;28;20195;-85
2022/03/11 02:36:45;;;;;;;35.33;32.22;;;;;;;;;;4994070;28;20245;-85
2022/03/11 02:39:13;;;;;;;35.75;32.75;;;;;;;;;;4994260;28;20202;-85
2022/03/11 02:41:43;;;;;;;36.00;32.83;;;;;;;;;;4994004;28;20724;-85
2022/03/11 02:44:11;;;;;;;34.35;31.40;;;;;;;;;;4994094;28;20223;-84
2022/03/11 02:46:38;;;;;;;35.78;32.47;;;;;;;;;;4993785;28;20539;-85
2022/03/11 02:49:05;;;;;;;37.38;34.05;;;;;;;;;;4993717;28;20206;-85
2022/03/11 02:51:33;;;;;;;36.53;33.20;;;;;;;;;;4993686;28;20205;-85
2022/03/11 02:54:00;;;;;;;36.25;32.90;;;;;;;;;;4994192;28;20225;-84
2022/03/11 02:56:27;;;;;;;35.88;32.47;;;;;;;;;;4994248;28;20245;-85
2022/03/11 02:58:56;;;;;;;38.50;35.00;;;;;;;;;;4994055;28;20250;-84
2022/03/11 03:01:23;;;;;;;34.45;31.40;;;;;;;;;;4994319;28;20201;-85
2022/03/11 03:03:51;;;;;;;36.47;33.15;;;;;;;;;;4993943;28;20219;-84
2022/03/11 03:06:18;;;;;;;35.50;32.08;;;;;;;;;;4993964;28;20246;-86
2022/03/11 03:08:45;;;;;;;36.38;33.13;;;;;;;;;;4993530;28;20676;-83
2022/03/11 03:11:13;;;;;;;35.85;32.75;;;;;;;;;;4993839;28;20191;-85
2022/03/11 03:13:40;;;;;;;37.75;34.20;;;;;;;;;;4993802;28;20195;-83
2022/03/11 03:16:09;;;;;;;37.38;33.88;;;;;;;;;;4993810;28;20198;-85
2022/03/11 03:18:36;;;;;;;37.47;33.72;;;;;;;;;;4993542;28;20242;-85
2022/03/11 03:21:04;;;;;;;35.90;32.80;;;;;;;;;;4993527;28;20191;-85
2022/03/11 03:23:31;;;;;;;37.70;34.20;;;;;;;;;;4993619;28;20572;-84
2022/03/11 03:26:00;;;;;;;37.15;33.72;;;;;;;;;;4993895;28;20187;-85
2022/03/11 03:28:27;;;;;;;37.08;33.80;;;;;;;;;;4993819;28;20230;-85
2022/03/11 03:30:55;;;;;;;37.03;33.83;;;;;;;;;;4994007;28;20269;-85
2022/03/11 03:33:23;;;;;;;35.72;32.70;;;;;;;;;;4993635;28;20204;-85
2022/03/11 03:35:51;;;;;;;35.95;32.75;;;;;;;;;;4993785;28;20253;-84
2022/03/11 03:38:18;;;;;;;39.50;35.80;;;;;;;;;;4994076;28;20202;-85
2022/03/11 03:40:45;;;;;;;39.30;35.70;;;;;;;;;;4993982;28;20589;-85
2022/03/11 03:43:13;;;;;;;38.90;35.22;;;;;;;;;;4993528;28;20195;-85
2022/03/11 03:45:40;;;;;;;39.30;35.25;;;;;;;;;;4993623;28;20245;-85
2022/03/11 03:48:08;;;;;;;38.75;35.08;;;;;;;;;;4993468;28;20207;-84
2022/03/11 03:50:36;;;;;;;41.17;36.83;;;;;;;;;;4993749;28;20191;-85
2022/03/11 03:53:04;;;;;;;39.47;35.97;;;;;;;;;;4993529;28;20227;-85
2022/03/11 03:55:31;;;;;;;37.97;34.65;;;;;;;;;;4993366;28;20245;-84
2022/03/11 03:57:58;;;;;;;37.67;34.38;;;;;;;;;;4993213;28;20211;-84
2022/03/11 04:00:26;;;;;;;38.42;34.78;;;;;;;;;;4995776;28;20718;-85
2022/03/11 04:02:53;;;;;;;38.90;35.40;;;;;;;;;;4997055;28;20249;-85
2022/03/11 04:05:21;;;;;;;37.92;34.42;;;;;;;;;;4997164;28;20273;-85
2022/03/11 04:07:50;;;;;;;39.28;35.55;;;;;;;;;;4996872;28;20195;-85
2022/03/11 04:10:19;;;;;;;39.38;35.55;;;;;;;;;;4996679;28;20195;-85
2022/03/11 04:12:47;;;;;;;37.28;33.90;;;;;;;;;;4996611;28;20191;-85
2022/03/11 04:15:14;;;;;;;38.90;35.20;;;;;;;;;;4996592;28;20253;-85
2022/03/11 04:17:42;;;;;;;36.42;33.42;;;;;;;;;;4996332;28;20195;-85
2022/03/11 04:20:10;;;;;;;37.17;33.78;;;;;;;;;;4996505;28;20198;-85
2022/03/11 04:22:41;;;;;;;38.25;34.95;;;;;;;;;;4996619;28;20195;-85
2022/03/11 04:25:11;;;;;;;39.08;35.35;;;;;;;;;;4996642;28;20642;-85
2022/03/11 04:27:39;;;;;;;37.83;34.15;;;;;;;;;;4996503;28;20649;-85
2022/03/11 04:30:07;;;;;;;37.72;34.13;;;;;;;;;;4996270;28;20191;-85
2022/03/11 04:32:35;;;;;;;36.78;33.38;;;;;;;;;;4996373;28;20215;-85
2022/03/11 04:35:03;;;;;;;38.55;34.92;;;;;;;;;;4996524;28;20199;-85
2022/03/11 04:37:30;;;;;;;38.55;35.00;;;;;;;;;;4996168;28;20214;-84
2022/03/11 04:39:58;;;;;;;38.72;34.90;;;;;;;;;;4996033;28;20191;-86
2022/03/11 04:42:27;;;;;;;37.85;34.28;;;;;;;;;;4996161;28;20522;-84
2022/03/11 04:44:55;;;;;;;37.65;34.38;;;;;;;;;;4995726;28;20648;-85
2022/03/11 04:47:22;;;;;;;39.13;35.58;;;;;;;;;;4996164;28;20187;-85
2022/03/11 04:49:50;;;;;;;39.17;35.42;;;;;;;;;;4996065;28;20214;-86
2022/03/11 04:52:17;;;;;;;38.92;35.28;;;;;;;;;;4995788;28;20680;-85
2022/03/11 04:54:44;;;;;;;38.83;35.20;;;;;;;;;;4996204;28;20605;-85
2022/03/11 04:57:11;;;;;;;40.47;36.55;;;;;;;;;;4995765;28;20692;-84
2022/03/11 04:59:40;;;;;;;37.78;34.28;;;;;;;;;;4995653;28;20637;-85
2022/03/11 05:02:07;;;;;;;37.30;33.85;;;;;;;;;;4995872;28;20246;-85
2022/03/11 05:04:35;;;;;;;39.75;36.38;;;;;;;;;;4995871;28;20219;-85
2022/03/11 05:07:02;;;;;;;32.60;29.70;;;;;;;;;;4995688;28;20195;-85
2022/03/11 05:09:29;;;;;;;39.50;35.40;;;;;;;;;;4995769;28;20191;-85
2022/03/11 05:11:56;;;;;;;37.42;33.92;;;;;;;;;;4995252;28;20199;-84
2022/03/11 05:14:24;;;;;;;39.55;35.90;;;;;;;;;;4995359;28;20198;-85
2022/03/11 05:16:53;;;;;;;38.25;34.90;;;;;;;;;;4995294;28;20549;-85
2022/03/11 05:19:21;;;;;;;39.58;35.63;;;;;;;;;;4995171;28;20261;-85
2022/03/11 05:21:48;;;;;;;39.47;35.75;;;;;;;;;;4995662;28;20194;-84
2022/03/11 05:24:16;;;;;;;37.88;34.05;;;;;;;;;;4995155;28;20219;-85
2022/03/11 05:26:43;;;;;;;41.50;37.45;;;;;;;;;;4994953;28;20194;-85
2022/03/11 05:29:10;;;;;;;41.47;37.58;;;;;;;;;;4995291;28;20278;-85
2022/03/11 05:31:38;;;;;;;40.30;36.60;;;;;;;;;;4995147;28;20711;-85
2022/03/11 05:34:07;;;;;;;40.17;36.42;;;;;;;;;;4995389;28;20903;-85
2022/03/11 05:36:35;;;;;;;40.50;36.80;;;;;;;;;;4995134;28;20191;-85
2022/03/11 05:39:02;;;;;;;38.72;35.15;;;;;;;;;;4977710;28;20222;-85
2022/03/11 05:41:29;;;;;;;38.90;35.28;;;;;;;;;;4995324;28;20202;-85
2022/03/11 05:43:57;;;;;;;38.47;35.13;;;;;;;;;;4994647;28;20195;-82
2022/03/11 05:46:24;;;;;;;40.03;36.00;;;;;;;;;;4994434;28;20611;-81
2022/03/11 05:48:51;;;;;;;41.28;37.17;;;;;;;;;;4994184;28;20190;-80
2022/03/11 05:51:20;;;;;;;40.97;36.70;;;;;;;;;;4993871;28;20191;-81
2022/03/11 05:53:47;;;;;;;37.40;33.95;;;;;;;;;;4994121;28;20195;-81
2022/03/11 05:56:14;;;;;;;38.88;35.20;;;;;;;;;;4994321;28;20199;-82
2022/03/11 05:58:42;;;;;;;38.65;34.88;;;;;;;;;;4994131;28;20196;-81
2022/03/11 06:01:09;;;;;;;40.95;37.13;;;;;;;;;;4994246;28;20195;-81
2022/03/11 06:03:37;;;;;;;39.22;35.80;;;;;;;;;;4994274;28;20191;-81
2022/03/11 06:06:04;;;;;;;38.33;35.10;;;;;;;;;;4994017;28;20600;-81
2022/03/11 06:08:33;;;;;;;36.65;33.08;;;;;;;;;;4994481;28;20195;-81
2022/03/11 06:11:00;;;;;;;38.55;35.13;;;;;;;;;;4994544;28;20206;-82
2022/03/11 06:13:28;;;;;;;36.42;33.08;;;;;;;;;;4994116;28;20203;-85
2022/03/11 06:15:55;;;;;;;38.90;35.50;;;;;;;;;;4993774;28;20409;-82
2022/03/11 06:18:22;;;;;;;38.17;34.67;;;;;;;;;;4993758;28;20234;-81
2022/03/11 06:20:50;;;;;;;39.60;35.95;;;;;;;;;;4993838;28;20198;-82
2022/03/11 06:23:17;;;;;;;39.70;36.03;;;;;;;;;;4992949;28;20195;-82
2022/03/11 06:25:46;;;;;;;39.92;36.00;;;;;;;;;;4993493;28;20219;-81
2022/03/11 06:28:13;;;;;;;39.10;35.40;;;;;;;;;;4993734;28;20652;-81
2022/03/11 06:30:40;;;;;;;37.55;34.42;;;;;;;;;;4993658;28;20203;-81
2022/03/11 06:33:09;;;;;;;38.10;34.63;;;;;;;;;;4993715;28;20282;-81
2022/03/11 06:35:37;;;;;;;33.83;30.80;;;;;;;;;;4993412;28;20207;-81
2022/03/11 06:38:04;;;;;;;39.78;36.03;;;;;;;;;;4993796;28;20241;-81
2022/03/11 06:40:32;;;;;;;37.00;33.67;;;;;;;;;;4993516;28;20245;-80
2022/03/11 06:43:01;;;;;;;37.10;33.70;;;;;;;;;;4993545;28;20210;-81
2022/03/11 06:45:28;;;;;;;38.70;35.30;;;;;;;;;;4993320;28;20223;-82
2022/03/11 06:47:55;;;;;;;38.45;35.05;;;;;;;;;;4993633;28;20250;-81
2022/03/11 06:50:23;;;;;;;37.90;34.40;;;;;;;;;;4993225;28;20542;-81
2022/03/11 06:52:50;;;;;;;37.15;33.75;;;;;;;;;;4993188;28;20238;-81
2022/03/11 06:55:17;;;;;;;35.70;32.60;;;;;;;;;;4993256;28;20637;-81
2022/03/11 06:57:45;;;;;;;35.80;32.63;;;;;;;;;;4993423;28;20195;-82
2022/03/11 07:00:15;;;;;;;34.92;31.83;;;;;;;;;;4993438;28;20245;-81
2022/03/11 07:02:42;;;;;;;36.83;33.53;;;;;;;;;;4993538;28;20195;-81
2022/03/11 07:05:10;;;;;;;36.90;33.58;;;;;;;;;;4993496;28;20219;-80
2022/03/11 07:07:37;;;;;;;36.35;33.05;;;;;;;;;;4993183;28;20191;-81
2022/03/11 07:10:06;;;;;;;36.75;33.45;;;;;;;;;;4993156;28;20642;-81
2022/03/11 07:12:33;;;;;;;30.15;27.77;;;;;;;;;;4993081;28;20249;-81
2022/03/11 07:15:01;;;;;;;32.03;29.20;;;;;;;;;;4993322;28;20219;-80
2022/03/11 07:17:30;;;;;;;32.97;30.17;;;;;;;;;;4993142;28;20233;-82
2022/03/11 07:19:57;;;;;;;34.75;31.33;;;;;;;;;;4992762;28;20239;-82
2022/03/11 07:22:25;;;;;;;29.50;27.10;;;;;;;;;;4993397;28;20257;-81
2022/03/11 07:24:52;;;;;;;32.47;29.75;;;;;;;;;;4993357;28;20218;-81
2022/03/11 07:27:22;;;;;;;31.08;28.38;;;;;;;;;;4993131;28;20334;-82
2022/03/11 07:29:50;;;;;;;32.25;29.45;;;;;;;;;;4992884;28;20642;-81
2022/03/11 07:32:17;;;;;;;35.17;32.17;;;;;;;;;;4993220;28;20215;-81
2022/03/11 07:34:46;;;;;;;35.75;32.40;;;;;;;;;;4996094;28;20709;-81
2022/03/11 07:37:13;;;;;;;35.58;32.47;;;;;;;;;;4996916;28;20187;-81
2022/03/11 07:39:41;;;;;;;33.75;30.95;;;;;;;;;;4996813;28;20253;-81
2022/03/11 07:42:08;;;;;;;33.58;30.42;;;;;;;;;;4996749;28;20278;-81
2022/03/11 07:44:36;;;;;;;34.03;30.85;;;;;;;;;;4979229;28;20241;-82
2022/03/11 07:47:03;;;;;;;31.75;28.90;;;;;;;;;;4996671;28;20222;-81
2022/03/11 07:49:31;;;;;;;33.50;30.20;;;;;;;;;;4996597;28;20199;-81
2022/03/11 07:52:00;;;;;;;34.55;31.67;;;;;;;;;;4996163;28;20226;-82
2022/03/11 07:54:28;;;;;;;34.60;31.60;;;;;;;;;;4996568;28;20237;-81
2022/03/11 07:56:55;;;;;;;32.58;29.48;;;;;;;;;;4996528;28;20269;-82
2022/03/11 07:59:22;;;;;;;34.30;31.27;;;;;;;;;;4978717;28;20234;-81
2022/03/11 08:01:50;;;;;;;33.33;30.48;;;;;;;;;;4996420;28;20190;-81
2022/03/11 08:04:18;;;;;;;30.25;27.83;;;;;;;;;;4996147;28;20191;-82
2022/03/11 08:06:45;;;;;;;28.85;26.70;;;;;;;;;;4995928;28;20242;-82
2022/03/11 08:09:14;;;;;;;31.50;28.90;;;;;;;;;;4996058;28;20191;-81
2022/03/11 08:11:41;;;;;;;31.52;28.88;;;;;;;;;;4996308;28;20194;-82
2022/03/11 08:14:09;;;;;;;33.92;30.95;;;;;;;;;;4996263;28;20190;-81
2022/03/11 08:16:36;;;;;;;30.90;28.65;;;;;;;;;;4996267;28;20203;-81
2022/03/11 08:19:03;;;;;;;29.85;27.52;;;;;;;;;;4995620;28;20241;-82
2022/03/11 08:21:31;;;;;;;32.63;30.02;;;;;;;;;;4996402;28;20198;-81
2022/03/11 08:23:58;;;;;;;31.42;28.88;;;;;;;;;;4995960;28;20264;-81
2022/03/11 08:26:28;;;;;;;35.25;32.10;;;;;;;;;;4995835;28;20313;-80
2022/03/11 08:28:55;;;;;;;29.92;27.70;;;;;;;;;;4995924;28;20221;-81
2022/03/11 08:31:22;;;;;;;31.48;29.08;;;;;;;;;;4995629;28;20224;-81
2022/03/11 08:33:50;;;;;;;33.05;30.20;;;;;;;;;;4995565;28;20191;-81
2022/03/11 08:36:17;;;;;;;33.28;30.38;;;;;;;;;;4995750;28;20202;-80
2022/03/11 08:38:44;;;;;;;32.88;30.05;;;;;;;;;;4995771;28;20711;-81
2022/03/11 08:41:12;;;;;;;32.30;30.00;;;;;;;;;;4995932;28;20295;-80
2022/03/11 08:43:41;;;;;;;30.80;28.40;;;;;;;;;;4995518;28;20397;-81
2022/03/11 08:46:09;;;;;;;33.95;30.80;;;;;;;;;;4994871;28;20223;-81
2022/03/11 08:48:37;;;;;;;28.63;26.58;;;;;;;;;;4995163;28;20606;-81
2022/03/11 08:51:04;;;;;;;32.35;29.80;;;;;;;;;;4995627;28;20210;-81
2022/03/11 08:53:32;;;;;;;27.77;25.77;;;;;;;;;;4995542;28;20191;-80
2022/03/11 08:55:59;;;;;;;31.55;29.00;;;;;;;;;;4995449;28;20191;-81
2022/03/11 08:58:26;;;;;;;29.73;27.13;;;;;;;;;;4994984;28;20198;-81
2022/03/11 09:00:55;;;;;;;27.73;25.63;;;;;;;;;;4995477;28;20199;-81
2022/03/11 09:03:23;;;;;;;28.13;26.10;;;;;;;;;;4977731;28;20424;-82
2022/03/11 09:05:50;;;;;;;28.85;26.52;;;;;;;;;;4994983;28;20489;-81
2022/03/11 09:08:17;;;;;;;32.50;30.10;;;;;;;;;;4994914;28;20202;-81
2022/03/11 09:10:45;;;;;;;30.10;27.50;;;;;;;;;;4994953;28;20513;-82
2022/03/11 09:13:12;;;;;;;28.57;26.67;;;;;;;;;;4994822;28;20199;-81
2022/03/11 09:15:39;;;;;;;30.20;27.85;;;;;;;;;;4994806;28;20917;-81
2022/03/11 09:18:08;;;;;;;28.40;26.42;;;;;;;;;;4994623;28;20239;-81
2022/03/11 09:20:36;;;;;;;30.13;27.92;;;;;;;;;;4994790;28;20638;-80
2022/03/11 09:23:03;;;;;;;28.75;26.52;;;;;;;;;;4977602;28;20634;-81
2022/03/11 09:25:31;;;;;;;29.20;27.10;;;;;;;;;;4994855;28;20619;-81
2022/03/11 09:27:58;;;;;;;30.40;28.02;;;;;;;;;;4994626;28;20195;-81
2022/03/11 09:30:25;;;;;;;28.90;26.50;;;;;;;;;;4994558;28;20194;-82
2022/03/11 09:32:53;;;;;;;28.85;26.85;;;;;;;;;;4994713;28;20619;-82
2022/03/11 09:35:21;;;;;;;29.88;27.67;;;;;;;;;;4994574;28;20203;-82
2022/03/11 09:37:49;;;;;;;30.73;28.43;;;;;;;;;;4994557;28;20207;-81
2022/03/11 09:40:16;;;;;;;30.10;27.65;;;;;;;;;;4994230;28;20427;-81
2022/03/11 09:42:45;;;;;;;30.13;27.50;;;;;;;;;;4994261;28;20198;-81
2022/03/11 09:45:13;;;;;;;29.40;27.10;;;;;;;;;;4994501;28;20419;-82
2022/03/11 09:47:41;;;;;;;28.65;26.65;;;;;;;;;;4994274;28;20660;-81
2022/03/11 09:50:09;;;;;;;26.95;25.05;;;;;;;;;;4994459;28;20200;-82
2022/03/11 09:52:38;;;;;;;26.70;24.73;;;;;;;;;;4994210;28;20225;-81
2022/03/11 09:55:06;;;;;;;29.47;27.10;;;;;;;;;;4994489;28;20194;-81
2022/03/11 09:57:34;;;;;;;30.07;27.70;;;;;;;;;;4993002;28;20452;-81
2022/03/11 10:00:01;;;;;;;27.80;25.70;;;;;;;;;;4994074;28;20492;-81
2022/03/11 10:02:30;;;;;;;27.43;25.53;;;;;;;;;;4994304;28;20493;-81
2022/03/11 10:04:58;;;;;;;31.40;29.00;;;;;;;;;;4994167;28;20412;-82
2022/03/11 10:07:26;;;;;;;29.90;27.70;;;;;;;;;;4976994;28;20456;-81
2022/03/11 10:09:54;;;;;;;27.70;25.80;;;;;;;;;;4994127;28;20445;-82
2022/03/11 10:12:23;;;;;;;30.07;27.77;;;;;;;;;;4993944;28;20396;-80
2022/03/11 10:15:00;;;;;;;29.43;27.20;;;;;;;;;;4993725;28;20442;-81
2022/03/11 10:17:27;;;;;;;29.38;27.20;;;;;;;;;;4994069;28;20453;-81
2022/03/11 10:19:56;;;;;;;29.43;27.20;;;;;;;;;;4993427;28;20234;-81
2022/03/11 10:22:25;;;;;;;28.93;26.73;;;;;;;;;;4993871;28;20479;-81
2022/03/11 10:24:52;;;;;;;27.73;25.83;;;;;;;;;;4993680;28;20434;-81
2022/03/11 10:27:23;;;;;;;26.77;24.87;;;;;;;;;;4993262;28;20987;-81
2022/03/11 10:29:50;;;;;;;28.70;26.48;;;;;;;;;;4993418;28;20483;-81
2022/03/11 10:32:23;;;;;;;28.48;25.88;;;;;;;;;;4993486;28;20253;-81
2022/03/11 10:34:50;;;;;;;26.83;24.90;;;;;;;;;;4993534;28;20195;-81
2022/03/11 10:37:19;;;;;;;27.90;25.90;;;;;;;;;;4993839;28;20435;-81
2022/03/11 10:39:47;;;;;;;28.58;26.40;;;;;;;;;;4993711;28;20909;-81
2022/03/11 10:42:16;;;;;;;28.43;26.17;;;;;;;;;;4993342;28;20202;-82
2022/03/11 10:44:55;;;;;;;28.77;26.57;;;;;;;;;;4993715;28;20466;-81
2022/03/11 10:47:23;;;;;;;27.80;25.80;;;;;;;;;;4993491;28;20464;-81
2022/03/11 10:49:51;;;;;;;27.73;25.73;;;;;;;;;;4993470;28;20449;-83
2022/03/11 10:52:29;;;;;;;27.70;25.80;;;;;;;;;;4993574;28;20481;-81
2022/03/11 10:54:56;;;;;;;27.70;25.80;;;;;;;;;;4993508;28;20412;-81
2022/03/11 10:57:34;;;;;;;26.57;24.47;;;;;;;;;;4993120;28;20913;-81
2022/03/11 11:00:16;;;;;;;28.03;25.83;;;;;;;;;;4993150;28;20492;-81
2022/03/11 11:02:44;;;;;;;28.43;26.37;;;;;;;;;;4993217;28;20424;-81
2022/03/11 11:05:14;;;;;;;28.13;26.13;;;;;;;;;;4993570;28;20424;-81
2022/03/11 11:07:42;;;;;;;29.10;26.90;;;;;;;;;;4993635;28;20455;-81
2022/03/11 11:10:10;;;;;;;28.80;26.63;;;;;;;;;;4997627;28;20946;-82
2022/03/11 11:12:37;;;;;;;28.27;26.30;;;;;;;;;;4979601;28;20508;-81
2022/03/11 11:15:05;;;;;;;27.33;25.13;;;;;;;;;;4997011;28;20448;-81
2022/03/11 11:17:34;;;;;;;27.10;25.20;;;;;;;;;;4979554;28;20445;-81
2022/03/11 11:20:02;;;;;;;28.53;26.50;;;;;;;;;;4997214;28;20508;-81
2022/03/11 11:22:31;;;;;;;28.77;26.77;;;;;;;;;;4997004;28;20420;-81
2022/03/11 11:25:01;;;;;;;27.33;25.63;;;;;;;;;;4997216;28;21012;-81
2022/03/11 11:27:28;;;;;;;28.03;26.10;;;;;;;;;;4996739;28;21024;-82
2022/03/11 11:29:56;;;;;;;27.50;25.60;;;;;;;;;;4997059;28;20416;-82
2022/03/11 11:32:23;;;;;;;26.67;24.90;;;;;;;;;;4996681;28;20950;-82
2022/03/11 11:34:52;;;;;;;28.20;26.30;;;;;;;;;;4996978;28;20471;-81
2022/03/11 11:37:37;;;;;;;28.30;26.30;;;;;;;;;;4996567;28;20442;-81
2022/03/11 11:40:18;;;;;;;28.33;26.13;;;;;;;;;;4996669;28;20499;-81
2022/03/11 11:43:00;;;;;;;28.87;26.70;;;;;;;;;;4996808;28;20479;-81
2022/03/11 11:45:41;;;;;;;25.67;23.87;;;;;;;;;;4996463;28;20842;-81
2022/03/11 11:48:28;;;;;;;26.67;24.77;;;;;;;;;;4996407;28;20485;-81
2022/03/11 11:50:57;;;;;;;27.70;25.37;;;;;;;;;;4996276;28;20425;-81
2022/03/11 11:53:33;;;;;;;25.23;23.63;;;;;;;;;;4996727;28;20459;-81
2022/03/11 11:56:01;;;;;;;28.50;26.43;;;;;;;;;;4996553;28;20456;-81
2022/03/11 11:58:32;;;;;;;27.37;25.37;;;;;;;;;;4996090;28;20449;-80
2022/03/11 12:00:59;;;;;;;27.30;25.50;;;;;;;;;;4996521;28;20421;-82
2022/03/11 12:03:41;;;;;;;29.40;27.17;;;;;;;;;;4996193;28;20417;-81
2022/03/11 12:06:10;;;;;;;28.37;26.30;;;;;;;;;;4995485;28;20466;-81
2022/03/11 12:08:48;;;;;;;26.23;24.60;;;;;;;;;;4996261;28;20416;-81
2022/03/11 12:11:30;;;;;;;29.07;27.10;;;;;;;;;;4996015;28;20525;-81
2022/03/11 12:14:02;;;;;;;27.57;25.77;;;;;;;;;;4995422;28;20487;-81
2022/03/11 12:16:50;;;;;;;29.33;27.30;;;;;;;;;;4996167;28;20476;-82
2022/03/11 12:19:32;;;;;;;27.23;25.33;;;;;;;;;;4995118;28;20463;-81
2022/03/11 12:22:01;;;;;;;25.93;24.23;;;;;;;;;;4995199;28;20443;-82
2022/03/11 12:24:34;;;;;;;28.60;26.50;;;;;;;;;;4995717;28;20471;-82
2022/03/11 12:27:01;;;;;;;28.77;26.33;;;;;;;;;;4995492;28;20464;-81
2022/03/11 12:29:30;;;;;;;28.53;26.63;;;;;;;;;;4995553;28;20420;-82
2022/03/11 12:31:58;;;;;;;29.27;26.97;;;;;;;;;;4995979;28;20438;-81
2022/03/11 12:34:26;;;;;;;28.37;26.47;;;;;;;;;;4995597;28;20993;-81
2022/03/11 12:36:54;;;;;;;27.67;25.77;;;;;;;;;;4995484;28;20447;-82
2022/03/11 12:39:29;;;;;;;27.20;25.43;;;;;;;;;;4995782;28;20442;-81
2022/03/11 12:41:56;;;;;;;28.50;26.57;;;;;;;;;;4995554;28;20456;-81
2022/03/11 12:44:23;;;;;;;29.40;27.30;;;;;;;;;;4978425;28;20442;-81
2022/03/11 12:46:51;;;;;;;27.23;25.30;;;;;;;;;;4995501;28;20463;-81
2022/03/11 12:49:25;;;;;;;27.93;25.93;;;;;;;;;;4995562;28;20443;-82
2022/03/11 12:51:52;;;;;;;27.80;25.90;;;;;;;;;;4995191;28;20481;-81
2022/03/11 12:54:25;;;;;;;28.23;26.27;;;;;;;;;;4995585;28;20417;-82
2022/03/11 12:56:54;;;;;;;27.30;25.40;;;;;;;;;;4995215;28;20936;-81
2022/03/11 12:59:21;;;;;;;29.90;27.70;;;;;;;;;;4995282;28;20428;-81
2022/03/11 13:01:51;;;;;;;29.50;27.50;;;;;;;;;;4995136;28;20424;-81
2022/03/11 13:04:18;;;;;;;27.93;26.17;;;;;;;;;;4995369;28;20409;-81
2022/03/11 13:06:51;;;;;;;28.03;26.13;;;;;;;;;;4995119;28;20973;-82
2022/03/11 13:09:22;;;;;;;26.10;24.60;;;;;;;;;;4995142;28;20537;-81
2022/03/11 13:11:49;;;;;;;26.10;24.50;;;;;;;;;;4995202;28;20449;-81
2022/03/11 13:14:20;;;;;;;28.93;26.90;;;;;;;;;;4995242;28;20438;-80
2022/03/11 13:16:52;;;;;;;28.40;26.50;;;;;;;;;;4994764;28;20416;-82
2022/03/11 13:19:19;;;;;;;28.80;26.97;;;;;;;;;;4994529;28;20527;-82
2022/03/11 13:21:48;;;;;;;29.43;27.43;;;;;;;;;;4994810;28;20416;-82
2022/03/11 13:24:16;;;;;;;30.50;28.47;;;;;;;;;;4994673;28;20986;-81
2022/03/11 13:26:43;;;;;;;29.50;27.60;;;;;;;;;;4994395;28;20482;-81
2022/03/11 13:29:10;;;;;;;30.07;28.00;;;;;;;;;;4994820;28;20489;-80
2022/03/11 13:31:39;;;;;;;28.83;27.00;;;;;;;;;;4994367;28;20903;-81
2022/03/11 13:34:08;;;;;;;29.37;27.47;;;;;;;;;;4994465;28;20798;-80
2022/03/11 13:36:37;;;;;;;27.20;25.40;;;;;;;;;;4995200;28;20519;-81
2022/03/11 13:39:07;;;;;;;29.37;27.47;;;;;;;;;;4995110;28;20413;-82
2022/03/11 13:41:37;;;;;;;27.23;25.53;;;;;;;;;;4977373;28;20421;-81
2022/03/11 13:44:06;;;;;;;28.23;26.10;;;;;;;;;;4994227;28;20452;-82
2022/03/11 13:46:36;;;;;;;27.87;25.73;;;;;;;;;;4994297;28;20413;-81
2022/03/11 13:49:05;;;;;;;27.80;25.97;;;;;;;;;;4994467;28;20416;-81
2022/03/11 13:51:43;;;;;;;28.03;26.03;;;;;;;;;;4994401;28;20449;-81
2022/03/11 13:54:10;;;;;;;27.90;26.10;;;;;;;;;;4994274;28;20985;-80
2022/03/11 13:56:41;;;;;;;27.20;25.33;;;;;;;;;;4994144;28;20811;-81
2022/03/11 13:59:09;;;;;;;27.63;25.73;;;;;;;;;;4994254;28;20420;-81
2022/03/11 14:01:39;;;;;;;26.33;24.17;;;;;;;;;;4993900;28;20899;-81
2022/03/11 14:04:20;;;;;;;26.00;24.30;;;;;;;;;;4993966;28;20454;-81
2022/03/11 14:06:47;;;;;;;26.70;24.70;;;;;;;;;;4993753;28;20457;-81
2022/03/11 14:09:15;;;;;;;27.20;25.40;;;;;;;;;;4994327;28;20432;-81
2022/03/11 14:11:43;;;;;;;26.83;25.10;;;;;;;;;;4993783;28;20434;-80
2022/03/11 14:14:26;;;;;;;26.93;25.17;;;;;;;;;;4993705;28;20425;-83
2022/03/11 14:16:54;;;;;;;25.63;23.93;;;;;;;;;;4993976;28;20820;-81
2022/03/11 14:19:22;;;;;;;27.47;25.57;;;;;;;;;;4993516;28;20542;-81
2022/03/11 14:21:50;;;;;;;26.70;25.00;;;;;;;;;;4993704;28;20409;-81
2022/03/11 14:24:18;;;;;;;27.80;25.67;;;;;;;;;;4993589;28;20801;-81